createdAt,value
2024-03-28T00:01:12.343Z,98740.56
2024-03-28T00:03:43.630Z,98739.70
2024-03-28T00:06:15.105Z,98736.48
2024-03-28T00:08:46.425Z,98730.25
2024-03-28T00:11:17.740Z,98724.90
2024-03-28T00:13:49.010Z,98719.52
2024-03-28T00:16:20.295Z,98713.94
2024-03-28T00:18:51.547Z,98713.38
2024-03-28T00:21:22.836Z,98714.17
2024-03-28T00:23:54.072Z,98709.88
2024-03-28T00:26:25.328Z,98713.09
2024-03-28T00:28:56.788Z,98708.97
2024-03-28T00:31:28.347Z,98707.20
2024-03-28T00:33:59.606Z,98701.77
2024-03-28T00:36:31.224Z,98695.30
2024-03-28T00:39:03.709Z,98689.08
2024-03-28T00:41:35.053Z,98687.11
2024-03-28T00:44:06.518Z,98687.71
2024-03-28T00:46:37.833Z,98685.55
2024-03-28T00:49:09.059Z,98674.61
2024-03-28T00:51:40.306Z,98678.30
2024-03-28T00:54:11.548Z,98675.96
2024-03-28T00:56:42.826Z,98674.88
2024-03-28T00:59:14.026Z,98669.45
2024-03-28T01:01:45.298Z,98664.69
2024-03-28T01:04:16.680Z,98661.17
2024-03-28T01:06:48.355Z,98662.75
2024-03-28T01:09:19.660Z,98663.27
2024-03-28T01:11:51.111Z,98666.90
2024-03-28T01:14:22.649Z,98668.80
2024-03-28T01:16:55.185Z,98665.07
2024-03-28T01:19:26.442Z,98661.45
2024-03-28T01:21:57.811Z,98662.13
2024-03-28T01:24:29.161Z,98660.73
2024-03-28T01:27:00.475Z,98661.95
2024-03-28T01:29:31.778Z,98664.27
2024-03-28T01:32:03.061Z,98670.41
2024-03-28T01:34:34.431Z,98672.51
2024-03-28T01:37:05.648Z,98670.30
2024-03-28T01:39:38.012Z,98664.20
2024-03-28T01:42:09.841Z,98659.48
2024-03-28T01:44:41.128Z,98654.31
2024-03-28T01:47:35.272Z,98653.28
2024-03-28T01:50:04.322Z,98643.48
2024-03-28T01:52:35.775Z,98648.05
2024-03-28T01:55:08.337Z,98643.95
2024-03-28T01:57:39.675Z,98643.46
2024-03-28T02:00:13.651Z,98641.34
2024-03-28T02:02:44.824Z,98636.60
2024-03-28T02:05:16.735Z,98633.86
2024-03-28T02:07:47.959Z,98636.58
2024-03-28T02:10:19.520Z,98630.87
2024-03-28T02:12:52.184Z,98632.19
2024-03-28T02:15:23.512Z,98627.41
2024-03-28T02:17:55.000Z,98630.61
2024-03-28T02:20:26.323Z,98630.94
2024-03-28T02:22:57.737Z,98631.23
2024-03-28T02:25:29.418Z,98630.55
2024-03-28T02:28:00.862Z,98630.27
2024-03-28T02:30:33.634Z,98632.02
2024-03-28T02:33:04.939Z,98632.13
2024-03-28T02:35:36.337Z,98629.16
2024-03-28T02:38:07.851Z,98625.89
2024-03-28T02:40:39.179Z,98619.40
2024-03-28T02:43:10.589Z,98612.33
2024-03-28T02:45:41.894Z,98605.80
2024-03-28T02:48:13.319Z,98599.45
2024-03-28T02:50:44.920Z,98591.92
2024-03-28T02:53:16.268Z,98595.40
2024-03-28T02:55:53.141Z,98592.63
2024-03-28T02:58:24.546Z,98591.33
2024-03-28T03:00:55.831Z,98591.29
2024-03-28T03:03:27.220Z,98592.88
2024-03-28T03:05:58.814Z,98598.54
2024-03-28T03:08:30.092Z,98603.66
2024-03-28T03:11:01.412Z,98611.23
2024-03-28T03:13:32.857Z,98617.75
2024-03-28T03:16:04.934Z,98618.52
2024-03-28T03:18:36.264Z,98617.87
2024-03-28T03:21:09.876Z,98614.10
2024-03-28T03:23:49.509Z,98611.24
2024-03-28T03:26:23.813Z,98602.27
2024-03-28T03:29:15.223Z,98603.40
2024-03-28T03:32:04.287Z,98597.39
2024-03-28T03:34:38.562Z,98587.70
2024-03-28T03:37:14.778Z,98581.19
2024-03-28T03:39:46.108Z,98580.14
2024-03-28T03:42:17.357Z,98570.15
2024-03-28T03:44:48.823Z,98568.80
2024-03-28T03:47:20.058Z,98565.01
2024-03-28T03:49:51.329Z,98566.18
2024-03-28T03:52:22.743Z,98570.14
2024-03-28T03:54:54.501Z,98571.14
2024-03-28T03:57:25.883Z,98566.84
2024-03-28T03:59:57.309Z,98564.09
2024-03-28T04:02:28.680Z,98566.25
2024-03-28T04:04:59.923Z,98564.29
2024-03-28T04:07:31.179Z,98558.83
2024-03-28T04:10:02.459Z,98556.83
2024-03-28T04:12:33.824Z,98556.83
2024-03-28T04:15:05.335Z,98553.94
2024-03-28T04:17:38.611Z,98549.34
2024-03-28T04:20:12.366Z,98548.66
2024-03-28T04:22:43.647Z,98548.79
2024-03-28T04:25:15.116Z,98541.86
2024-03-28T04:27:46.414Z,98546.95
2024-03-28T04:30:17.961Z,98538.05
2024-03-28T04:32:49.216Z,98536.18
2024-03-28T04:35:20.544Z,98539.58
2024-03-28T04:37:52.117Z,98536.73
2024-03-28T04:40:23.569Z,98533.35
2024-03-28T04:42:54.994Z,98534.78
2024-03-28T04:45:26.356Z,98522.90
2024-03-28T04:47:58.638Z,98519.35
2024-03-28T04:50:29.973Z,98514.14
2024-03-28T04:53:01.215Z,98507.84
2024-03-28T04:55:32.478Z,98504.07
2024-03-28T04:58:04.087Z,98498.77
2024-03-28T05:00:36.128Z,98503.44
2024-03-28T05:03:07.743Z,98508.44
2024-03-28T05:05:39.620Z,98506.02
2024-03-28T05:08:11.030Z,98505.88
2024-03-28T05:10:42.246Z,98507.83
2024-03-28T05:13:13.741Z,98507.48
2024-03-28T05:15:45.109Z,98501.89
2024-03-28T05:18:16.307Z,98501.01
2024-03-28T05:20:48.712Z,98494.28
2024-03-28T05:23:20.073Z,98495.58
2024-03-28T05:25:51.372Z,98491.25
2024-03-28T05:28:22.624Z,98495.73
2024-03-28T05:30:53.988Z,98491.44
2024-03-28T05:33:25.278Z,98485.30
2024-03-28T05:35:56.848Z,98480.73
2024-03-28T05:38:28.416Z,98475.86
2024-03-28T05:41:00.526Z,98473.18
2024-03-28T05:43:31.861Z,98468.35
2024-03-28T05:46:03.279Z,98465.23
2024-03-28T05:48:34.671Z,98467.36
2024-03-28T05:51:06.543Z,98466.36
2024-03-28T05:53:37.980Z,98465.23
2024-03-28T05:56:09.576Z,98469.69
2024-03-28T05:58:40.813Z,98465.73
2024-03-28T06:01:12.104Z,98462.80
2024-03-28T06:03:43.412Z,98465.61
2024-03-28T06:06:14.905Z,98458.28
2024-03-28T06:08:46.131Z,98451.27
2024-03-28T06:11:17.352Z,98458.22
2024-03-28T06:13:48.709Z,98454.74
2024-03-28T06:16:22.830Z,98448.71
2024-03-28T06:18:52.721Z,98450.14
2024-03-28T06:21:23.987Z,98449.83
2024-03-28T06:23:55.277Z,98444.14
2024-03-28T06:26:26.626Z,98443.27
2024-03-28T06:28:57.806Z,98443.39
2024-03-28T06:31:29.073Z,98434.56
2024-03-28T06:34:00.362Z,98432.27
2024-03-28T06:36:31.684Z,98429.93
2024-03-28T06:39:03.817Z,98429.25
2024-03-28T06:41:35.090Z,98423.51
2024-03-28T06:44:06.540Z,98428.30
2024-03-28T06:46:37.932Z,98425.96
2024-03-28T06:49:09.218Z,98426.02
2024-03-28T06:51:40.461Z,98428.41
2024-03-28T06:54:11.710Z,98421.83
2024-03-28T06:56:42.946Z,98418.92
2024-03-28T06:59:14.565Z,98422.48
2024-03-28T07:01:45.836Z,98426.52
2024-03-28T07:04:17.094Z,98425.25
2024-03-28T07:06:48.583Z,98426.61
2024-03-28T07:09:19.876Z,98425.04
2024-03-28T07:11:51.450Z,98423.46
2024-03-28T07:14:22.709Z,98424.83
2024-03-28T07:16:54.019Z,98424.12
2024-03-28T07:19:25.704Z,98422.45
2024-03-28T07:21:57.092Z,98419.86
2024-03-28T07:24:28.473Z,98417.39
2024-03-28T07:26:59.765Z,98415.54
2024-03-28T07:29:31.172Z,98417.00
2024-03-28T07:32:02.479Z,98421.39
2024-03-28T07:34:33.688Z,98413.30
2024-03-28T07:37:05.145Z,98415.27
2024-03-28T07:39:36.336Z,98410.12
2024-03-28T07:42:08.391Z,98414.29
2024-03-28T07:44:39.832Z,98414.33
2024-03-28T07:47:11.155Z,98408.95
2024-03-28T07:49:42.394Z,98407.98
2024-03-28T07:52:13.641Z,98404.20
2024-03-28T07:54:47.321Z,98404.31
2024-03-28T07:57:18.506Z,98408.47
2024-03-28T07:59:49.733Z,98410.65
2024-03-28T08:02:21.337Z,98417.26
2024-03-28T08:04:53.244Z,98421.71
2024-03-28T08:07:25.537Z,98420.27
2024-03-28T08:09:56.686Z,98415.58
2024-03-28T08:12:28.105Z,98415.20
2024-03-28T08:15:00.320Z,98417.11
2024-03-28T08:17:32.011Z,98418.04
2024-03-28T08:20:14.746Z,98418.88
2024-03-28T08:22:45.993Z,98420.23
2024-03-28T08:25:17.472Z,98415.83
2024-03-28T08:27:48.725Z,98418.51
2024-03-28T08:30:20.350Z,98413.69
2024-03-28T08:32:51.820Z,98406.36
2024-03-28T08:35:23.451Z,98413.36
2024-03-28T08:37:55.136Z,98411.21
2024-03-28T08:40:26.333Z,98411.60
2024-03-28T08:42:59.761Z,98405.46
2024-03-28T08:45:33.490Z,98403.08
2024-03-28T08:48:06.148Z,98401.11
2024-03-28T08:50:38.151Z,98398.72
2024-03-28T08:53:09.337Z,98394.27
2024-03-28T08:55:40.500Z,98396.66
2024-03-28T08:58:12.206Z,98398.29
2024-03-28T09:00:43.391Z,98406.41
2024-03-28T09:03:15.058Z,98402.23
2024-03-28T09:05:46.344Z,98401.39
2024-03-28T09:08:17.751Z,98402.98
2024-03-28T09:10:56.092Z,98404.63
2024-03-28T09:13:27.454Z,98398.75
2024-03-28T09:15:58.742Z,98392.70
2024-03-28T09:18:30.031Z,98387.30
2024-03-28T09:21:01.579Z,98386.89
2024-03-28T09:23:33.768Z,98379.62
2024-03-28T09:26:05.403Z,98376.97
2024-03-28T09:28:36.652Z,98369.14
2024-03-28T09:31:09.097Z,98365.75
2024-03-28T09:33:40.368Z,98365.41
2024-03-28T09:36:13.932Z,98371.30
2024-03-28T09:38:45.506Z,98366.88
2024-03-28T09:41:22.577Z,98360.23
2024-03-28T09:43:54.373Z,98365.23
2024-03-28T09:46:25.687Z,98365.73
2024-03-28T09:49:00.839Z,98366.91
2024-03-28T09:51:32.309Z,98363.52
2024-03-28T09:54:06.495Z,98358.02
2024-03-28T09:56:38.770Z,98357.17
2024-03-28T09:59:10.022Z,98363.92
2024-03-28T10:01:41.800Z,98371.66
2024-03-28T10:04:18.580Z,98369.48
2024-03-28T10:06:54.074Z,98371.42
2024-03-28T10:09:25.550Z,98368.20
2024-03-28T10:11:56.866Z,98372.52
2024-03-28T10:14:33.776Z,98365.26
2024-03-28T10:17:05.296Z,98359.94
2024-03-28T10:19:40.557Z,98357.04
2024-03-28T10:22:15.671Z,98355.08
2024-03-28T10:24:50.250Z,98355.91
2024-03-28T10:27:24.104Z,98352.34
2024-03-28T10:29:57.177Z,98351.45
2024-03-28T10:32:28.526Z,98346.52
2024-03-28T10:35:00.225Z,98343.02
2024-03-28T10:37:36.811Z,98345.84
2024-03-28T10:40:17.561Z,98341.67
2024-03-28T10:42:50.722Z,98343.84
2024-03-28T10:45:24.464Z,98343.09
2024-03-28T10:47:56.331Z,98338.91
2024-03-28T10:50:34.759Z,98337.34
2024-03-28T10:53:10.072Z,98336.30
2024-03-28T10:55:42.757Z,98336.48
2024-03-28T10:58:14.291Z,98331.02
2024-03-28T11:00:45.578Z,98331.00
2024-03-28T11:03:18.300Z,98325.39
2024-03-28T11:05:50.047Z,98322.36
2024-03-28T11:08:22.027Z,98328.84
2024-03-28T11:10:53.700Z,98329.48
2024-03-28T11:13:26.557Z,98341.14
2024-03-28T11:16:06.153Z,98340.30
2024-03-28T11:18:37.454Z,98338.79
2024-03-28T11:21:09.578Z,98342.78
2024-03-28T11:23:48.642Z,98342.43
2024-03-28T11:26:23.423Z,98349.15
2024-03-28T11:29:03.790Z,98356.55
2024-03-28T11:31:38.518Z,98360.34
2024-03-28T11:34:12.502Z,98370.09
2024-03-28T11:36:43.684Z,98373.27
2024-03-28T11:39:14.958Z,98371.28
2024-03-28T11:41:46.207Z,98380.62
2024-03-28T11:44:21.953Z,98377.11
2024-03-28T11:47:02.210Z,98380.14
2024-03-28T11:49:35.281Z,98381.79
2024-03-28T11:52:09.931Z,98389.36
2024-03-28T11:54:41.147Z,98383.07
2024-03-28T11:57:12.628Z,98378.13
2024-03-28T11:59:43.842Z,98366.96
2024-03-28T12:02:15.038Z,98371.45
2024-03-28T12:04:46.212Z,98378.91
2024-03-28T12:07:17.424Z,98382.30
2024-03-28T12:09:49.169Z,98390.27
2024-03-28T12:12:20.325Z,98400.66
2024-03-28T12:14:53.159Z,98404.76
2024-03-28T12:17:29.108Z,98395.53
2024-03-28T12:20:13.274Z,98396.27
2024-03-28T12:22:46.553Z,98389.42
2024-03-28T12:25:17.946Z,98395.87
2024-03-28T12:27:58.321Z,98390.41
2024-03-28T12:30:30.996Z,98387.14
2024-03-28T12:33:06.300Z,98390.14
2024-03-28T12:35:38.490Z,98395.21
2024-03-28T12:38:13.969Z,98400.27
2024-03-28T12:40:48.977Z,98403.59
2024-03-28T12:43:23.206Z,98408.72
2024-03-28T12:46:05.184Z,98415.33
2024-03-28T12:48:36.361Z,98417.77
2024-03-28T12:51:07.810Z,98414.35
2024-03-28T12:53:39.434Z,98411.81
2024-03-28T12:56:10.815Z,98414.36
2024-03-28T12:58:43.041Z,98412.52
2024-03-28T13:01:14.330Z,98415.06
2024-03-28T13:03:45.606Z,98413.36
2024-03-28T13:06:16.849Z,98411.67
2024-03-28T13:08:48.096Z,98410.08
2024-03-28T13:11:19.343Z,98410.09
2024-03-28T13:13:50.757Z,98410.96
2024-03-28T13:16:25.134Z,98409.46
2024-03-28T13:18:56.379Z,98407.81
2024-03-28T13:21:31.184Z,98396.17
2024-03-28T13:24:02.589Z,98398.77
2024-03-28T13:29:13.076Z,98391.64
2024-03-28T13:31:44.846Z,98393.36
2024-03-28T13:34:16.118Z,98392.55
2024-03-28T13:36:47.765Z,98394.58
2024-03-28T13:39:19.063Z,98402.75
2024-03-28T13:41:50.278Z,98403.38
2024-03-28T13:44:22.445Z,98407.58
2024-03-28T13:46:54.652Z,98405.79
2024-03-28T13:49:27.276Z,98410.09
2024-03-28T13:52:00.819Z,98414.11
2024-03-28T13:54:34.578Z,98412.35
2024-03-28T13:57:06.192Z,98415.02
2024-03-28T13:59:38.151Z,98419.33
2024-03-28T14:02:09.534Z,98427.70
2024-03-28T14:04:40.811Z,98423.84
2024-03-28T14:07:11.965Z,98428.09
2024-03-28T14:09:43.435Z,98438.98
2024-03-28T14:12:14.634Z,98447.52
2024-03-28T14:14:45.777Z,98448.33
2024-03-28T14:17:16.963Z,98439.82
2024-03-28T14:19:51.585Z,98442.31
2024-03-28T14:22:22.765Z,98442.48
2024-03-28T14:24:55.814Z,98435.42
2024-03-28T14:27:27.072Z,98432.83
2024-03-28T14:29:59.912Z,98434.90
2024-03-28T14:32:31.396Z,98435.58
2024-03-28T14:35:02.626Z,98444.41
2024-03-28T14:37:33.761Z,98447.27
2024-03-28T14:40:07.148Z,98451.97
2024-03-28T14:42:38.350Z,98447.79
2024-03-28T14:45:11.081Z,98446.77
2024-03-28T14:47:42.304Z,98448.65
2024-03-28T14:50:13.828Z,98451.16
2024-03-28T14:52:45.081Z,98451.98
2024-03-28T14:55:16.732Z,98455.27
2024-03-28T14:57:47.912Z,98460.68
2024-03-28T15:00:20.334Z,98461.38
2024-03-28T15:02:51.503Z,98462.71
2024-03-28T15:05:22.715Z,98467.70
2024-03-28T15:07:54.377Z,98473.09
2024-03-28T15:10:25.709Z,98477.72
2024-03-28T15:12:56.906Z,98479.73
2024-03-28T15:15:28.226Z,98485.52
2024-03-28T15:17:59.439Z,98507.80
2024-03-28T15:20:35.213Z,98513.52
2024-03-28T15:23:06.938Z,98517.05
2024-03-28T15:25:38.673Z,98519.86
2024-03-28T15:28:10.130Z,98526.29
2024-03-28T15:30:42.300Z,98532.39
2024-03-28T15:33:13.857Z,98540.21
2024-03-28T15:35:45.134Z,98545.02
2024-03-28T15:38:16.352Z,98547.19
2024-03-28T15:40:47.625Z,98547.70
2024-03-28T15:43:18.797Z,98549.83
2024-03-28T15:45:50.703Z,98552.36
2024-03-28T15:48:21.903Z,98550.25
2024-03-28T15:50:53.140Z,98554.32
2024-03-28T15:53:24.895Z,98558.14
2024-03-28T15:55:59.715Z,98560.84
2024-03-28T15:58:31.791Z,98557.82
2024-03-28T16:01:03.088Z,98562.25
2024-03-28T16:03:34.365Z,98560.92
2024-03-28T16:06:16.622Z,98573.52
2024-03-28T16:08:48.393Z,98575.28
2024-03-28T16:11:19.612Z,98583.04
2024-03-28T16:13:50.959Z,98586.02
2024-03-28T16:16:22.190Z,98582.52
2024-03-28T16:18:53.451Z,98583.17
2024-03-28T16:21:24.777Z,98581.45
2024-03-28T16:23:56.119Z,98581.17
2024-03-28T16:26:27.433Z,98580.69
2024-03-28T16:29:06.754Z,98577.23
2024-03-28T16:31:43.260Z,98583.73
2024-03-28T16:34:14.769Z,98588.45
2024-03-28T16:36:48.213Z,98596.66
2024-03-28T16:39:19.446Z,98605.47
2024-03-28T16:41:50.854Z,98613.88
2024-03-28T16:44:24.370Z,98621.52
2024-03-28T16:46:55.590Z,98628.79
2024-03-28T16:49:26.774Z,98626.63
2024-03-28T16:51:59.823Z,98637.50
2024-03-28T16:54:31.216Z,98645.88
2024-03-28T16:57:02.654Z,98646.71
2024-03-28T16:59:33.817Z,98644.38
2024-03-28T17:02:05.324Z,98654.85
2024-03-28T17:04:37.114Z,98658.68
